createdAt,value
2022-08-03T00:01:04.784Z,2.60
2022-08-03T00:06:03.692Z,2.80
2022-08-03T00:10:50.561Z,2.42
2022-08-03T00:15:36.417Z,2.45
2022-08-03T00:20:22.643Z,2.60
2022-08-03T00:25:11.868Z,2.95
2022-08-03T00:29:59.857Z,2.53
2022-08-03T00:34:57.547Z,2.70
2022-08-03T00:39:48.137Z,2.78
2022-08-03T00:44:43.955Z,2.60
2022-08-03T00:49:30.001Z,2.88
2022-08-03T00:54:16.090Z,3.13
2022-08-03T00:59:02.985Z,2.75
2022-08-03T01:03:51.295Z,3.10
2022-08-03T01:08:47.702Z,2.83
2022-08-03T01:14:02.002Z,2.95
2022-08-03T01:19:13.034Z,3.40
2022-08-03T01:24:26.115Z,2.75
2022-08-03T01:29:27.554Z,3.03
2022-08-03T01:34:19.381Z,3.22
2022-08-03T01:44:29.688Z,3.58
2022-08-03T01:49:08.998Z,3.63
2022-08-03T01:53:58.994Z,3.80
2022-08-03T01:58:47.497Z,3.85
2022-08-03T02:03:35.204Z,3.53
2022-08-03T02:08:22.874Z,3.83
2022-08-03T02:13:12.857Z,3.67
2022-08-03T02:18:01.166Z,3.50
2022-08-03T02:22:48.217Z,3.83
2022-08-03T02:27:43.132Z,3.35
2022-08-03T02:32:34.722Z,3.58
2022-08-03T02:37:23.600Z,3.22
2022-08-03T02:42:14.515Z,3.70
2022-08-03T02:47:05.639Z,3.72
2022-08-03T02:51:56.819Z,3.70
2022-08-03T02:56:44.720Z,3.40
2022-08-03T03:01:32.406Z,3.80
2022-08-03T03:06:21.093Z,3.55
2022-08-03T03:11:12.318Z,3.63
2022-08-03T03:16:00.832Z,3.80
2022-08-03T03:20:49.222Z,3.72
2022-08-03T03:25:36.349Z,3.50
2022-08-03T03:30:25.070Z,3.92
2022-08-03T03:35:13.291Z,4.00
2022-08-03T03:39:59.377Z,3.85
2022-08-03T03:44:45.586Z,4.97
2022-08-03T03:49:35.510Z,4.68
2022-08-03T03:54:21.587Z,4.20
2022-08-03T03:59:07.313Z,4.20
2022-08-03T04:03:52.708Z,3.95
2022-08-03T04:08:52.730Z,4.05
2022-08-03T04:13:42.594Z,4.40
2022-08-03T04:18:31.171Z,3.97
2022-08-03T04:23:17.031Z,4.85
2022-08-03T04:28:19.706Z,4.47
2022-08-03T04:33:11.765Z,3.80
2022-08-03T04:38:03.182Z,4.25
2022-08-03T04:42:49.939Z,3.72
2022-08-03T04:47:39.379Z,4.40
2022-08-03T04:52:24.816Z,4.10
2022-08-03T04:57:09.959Z,4.50
2022-08-03T05:02:08.632Z,4.25
2022-08-03T05:06:56.391Z,4.68
2022-08-03T05:11:43.805Z,4.20
2022-08-03T05:16:28.978Z,4.35
2022-08-03T05:21:17.002Z,4.15
2022-08-03T05:26:04.918Z,4.20
2022-08-03T05:30:50.601Z,3.90
2022-08-03T05:35:55.700Z,4.28
2022-08-03T05:40:56.662Z,4.05
2022-08-03T05:45:46.243Z,4.22
2022-08-03T05:50:47.156Z,4.50
2022-08-03T05:55:32.434Z,4.72
2022-08-03T06:00:19.002Z,4.97
2022-08-03T06:05:06.934Z,4.95
2022-08-03T06:10:35.272Z,4.78
2022-08-03T06:14:57.884Z,4.93
2022-08-03T06:19:43.065Z,5.00
2022-08-03T06:24:31.019Z,4.80
2022-08-03T06:29:16.220Z,5.18
2022-08-03T06:34:32.275Z,4.95
2022-08-03T06:39:08.056Z,4.85
2022-08-03T06:44:04.025Z,4.63
2022-08-03T06:48:50.029Z,4.75
2022-08-03T06:53:35.155Z,4.97
2022-08-03T06:58:20.565Z,4.75
2022-08-03T07:03:08.368Z,4.55
2022-08-03T07:07:53.714Z,4.97
2022-08-03T07:12:39.062Z,5.10
2022-08-03T07:17:42.075Z,5.05
2022-08-03T07:22:30.030Z,4.90
2022-08-03T07:27:15.458Z,4.78
2022-08-03T07:32:00.519Z,4.35
2022-08-03T07:36:45.902Z,4.85
2022-08-03T07:41:33.861Z,4.68
2022-08-03T07:46:19.244Z,4.72
2022-08-03T07:51:05.861Z,4.80
2022-08-03T07:55:51.572Z,4.40
2022-08-03T08:00:39.696Z,4.40
2022-08-03T08:05:25.054Z,4.38
2022-08-03T08:10:13.186Z,4.35
2022-08-03T08:14:58.651Z,4.55
2022-08-03T08:19:51.274Z,4.28
2022-08-03T08:24:37.304Z,4.47
2022-08-03T08:29:23.426Z,4.25
2022-08-03T08:34:08.775Z,4.50
2022-08-03T08:38:56.573Z,4.30
2022-08-03T08:43:41.960Z,4.25
2022-08-03T08:48:28.991Z,4.30
2022-08-03T08:53:17.530Z,4.53
2022-08-03T08:58:09.719Z,4.50
2022-08-03T09:02:55.597Z,4.45
2022-08-03T09:07:40.856Z,5.13
2022-08-03T09:12:42.704Z,4.25
2022-08-03T09:17:46.404Z,4.30
2022-08-03T09:22:34.331Z,4.70
2022-08-03T09:27:19.467Z,4.78
2022-08-03T09:32:06.850Z,4.18
2022-08-03T09:36:55.871Z,4.38
2022-08-03T09:41:43.828Z,4.30
2022-08-03T09:46:32.264Z,4.15
2022-08-03T09:51:32.850Z,3.60
2022-08-03T09:56:42.166Z,3.13
2022-08-03T10:01:36.075Z,2.72
2022-08-03T10:06:22.549Z,3.40
2022-08-03T10:11:14.297Z,3.80
2022-08-03T10:16:22.240Z,3.75
2022-08-03T10:21:13.460Z,3.65
2022-08-03T10:26:04.976Z,3.80
2022-08-03T10:30:53.605Z,3.42
2022-08-03T10:35:44.644Z,3.20
2022-08-03T10:45:40.652Z,2.80
2022-08-03T10:50:28.557Z,2.80
2022-08-03T10:55:50.155Z,2.47
2022-08-03T11:00:52.779Z,3.22
2022-08-03T11:05:41.390Z,3.70
2022-08-03T11:10:36.667Z,3.90
2022-08-03T11:15:36.188Z,3.55
2022-08-03T11:20:48.651Z,3.60
2022-08-03T11:26:12.868Z,3.10
2022-08-03T11:30:59.095Z,3.55
2022-08-03T11:36:02.883Z,3.40
2022-08-03T11:40:53.603Z,2.90
2022-08-03T11:45:39.567Z,2.97
2022-08-03T11:50:25.384Z,4.60
2022-08-03T11:55:22.351Z,3.50
2022-08-03T12:00:32.590Z,2.70
2022-08-03T12:05:19.202Z,2.25
2022-08-03T12:10:12.349Z,2.53
2022-08-03T12:14:58.684Z,2.13
2022-08-03T12:19:49.277Z,2.10
2022-08-03T12:24:46.878Z,1.98
2022-08-03T12:29:32.266Z,3.00
2022-08-03T12:34:18.419Z,2.10
2022-08-03T12:39:08.502Z,2.90
2022-08-03T12:43:55.327Z,4.10
2022-08-03T12:48:40.890Z,1.88
2022-08-03T12:53:32.905Z,1.75
2022-08-03T12:58:34.192Z,1.75
2022-08-03T13:03:42.408Z,1.88
2022-08-03T13:08:28.425Z,1.83
2022-08-03T13:13:13.564Z,2.17
2022-08-03T13:18:01.707Z,2.00
2022-08-03T13:22:50.707Z,2.30
2022-08-03T13:28:12.375Z,2.88
2022-08-03T13:32:41.872Z,2.17
2022-08-03T13:37:29.625Z,2.00
2022-08-03T13:42:15.033Z,2.10
2022-08-03T13:47:00.983Z,2.00
2022-08-03T13:51:46.344Z,1.65
2022-08-03T13:56:34.789Z,2.20
2022-08-03T14:01:34.333Z,1.70
2022-08-03T14:06:26.192Z,1.60
2022-08-03T14:11:11.391Z,1.83
2022-08-03T14:15:59.343Z,1.70
2022-08-03T14:20:49.049Z,1.80
2022-08-03T14:25:43.272Z,2.25
2022-08-03T14:30:35.665Z,2.22
2022-08-03T14:35:23.609Z,1.95
2022-08-03T14:40:10.408Z,2.22
2022-08-03T14:45:00.737Z,2.45
2022-08-03T14:50:38.461Z,2.05
2022-08-03T14:54:57.022Z,2.10
2022-08-03T14:59:55.875Z,2.50
2022-08-03T15:04:42.577Z,2.20
2022-08-03T15:09:27.692Z,2.60
2022-08-03T15:14:15.683Z,2.90
2022-08-03T15:19:01.101Z,2.30
2022-08-03T15:23:46.572Z,2.40
2022-08-03T15:28:31.747Z,2.88
2022-08-03T15:33:19.870Z,3.03
2022-08-03T15:38:09.205Z,2.95
2022-08-03T15:47:39.815Z,2.00
2022-08-03T15:52:28.065Z,2.22
2022-08-03T15:57:14.377Z,2.30
2022-08-03T16:02:00.301Z,2.63
2022-08-03T16:06:45.767Z,2.58
2022-08-03T16:11:33.760Z,2.70
2022-08-03T16:16:18.872Z,4.25
2022-08-03T16:21:04.285Z,3.55
2022-08-03T16:25:49.595Z,3.13
2022-08-03T16:30:37.630Z,2.78
2022-08-03T16:35:24.439Z,3.65
2022-08-03T16:40:17.296Z,3.05
2022-08-03T16:45:04.645Z,3.40
2022-08-03T16:49:56.265Z,3.63
2022-08-03T16:54:41.683Z,4.50
2022-08-03T16:59:36.187Z,7.15
2022-08-03T17:04:22.334Z,3.13
2022-08-03T17:09:14.026Z,3.00
2022-08-03T17:14:05.317Z,2.83
2022-08-03T17:18:58.343Z,2.75
2022-08-03T17:23:56.186Z,3.13
2022-08-03T17:28:56.500Z,2.42
2022-08-03T17:38:34.625Z,2.50
2022-08-03T17:44:14.328Z,2.38
2022-08-03T17:48:30.616Z,2.60
2022-08-03T17:53:24.201Z,2.22
2022-08-03T17:58:16.501Z,2.53
2022-08-03T18:03:21.511Z,2.10
2022-08-03T18:08:11.283Z,1.80
2022-08-03T18:13:10.734Z,2.50
2022-08-03T18:18:02.139Z,1.70
2022-08-03T18:22:48.066Z,1.88
2022-08-03T18:27:42.702Z,1.92
2022-08-03T18:32:31.413Z,1.60
2022-08-03T18:37:24.977Z,1.80
2022-08-03T18:42:19.363Z,2.05
2022-08-03T18:47:26.272Z,1.70
2022-08-03T18:52:20.296Z,1.70
2022-08-03T18:57:06.795Z,1.50
2022-08-03T19:02:00.041Z,1.73
2022-08-03T19:06:51.566Z,1.65
2022-08-03T19:12:14.534Z,2.13
2022-08-03T19:16:51.400Z,1.63
2022-08-03T19:21:38.104Z,2.00
2022-08-03T19:26:31.241Z,2.08
2022-08-03T19:31:18.087Z,2.15
2022-08-03T19:41:16.446Z,2.17
2022-08-03T19:46:08.292Z,1.92
2022-08-03T19:50:56.303Z,2.10
2022-08-03T19:55:49.009Z,2.05
2022-08-03T20:00:37.059Z,2.45
2022-08-03T20:05:26.443Z,2.40
2022-08-03T20:10:11.983Z,2.28
2022-08-03T20:14:58.153Z,2.67
2022-08-03T20:19:43.746Z,2.72
2022-08-03T20:24:37.268Z,3.03
2022-08-03T20:29:31.455Z,3.65
2022-08-03T20:34:28.238Z,2.60
2022-08-03T20:39:13.373Z,2.88
2022-08-03T20:44:01.999Z,2.70
2022-08-03T20:48:48.767Z,2.95
2022-08-03T20:54:00.337Z,2.83
2022-08-03T20:58:41.632Z,2.70
2022-08-03T21:03:41.028Z,2.47
2022-08-03T21:08:36.711Z,2.55
2022-08-03T21:13:02.594Z,1.98
2022-08-03T21:13:41.072Z,2.50
2022-08-03T21:18:30.343Z,2.22
2022-08-03T21:23:35.088Z,2.37
2022-08-03T21:28:27.345Z,3.20
2022-08-03T21:33:12.917Z,2.55
2022-08-03T21:38:13.046Z,2.20
2022-08-03T21:42:58.537Z,2.60
2022-08-03T21:47:45.101Z,2.60
2022-08-03T21:52:31.488Z,2.42
2022-08-03T21:57:22.543Z,2.70
2022-08-03T22:02:22.601Z,2.35
2022-08-03T22:07:10.590Z,2.45
2022-08-03T22:11:56.660Z,2.58
2022-08-03T22:16:45.896Z,2.25
2022-08-03T22:21:36.367Z,2.53
2022-08-03T22:26:34.831Z,2.67
2022-08-03T22:31:30.694Z,2.45
2022-08-03T22:36:30.729Z,2.45
2022-08-03T22:41:17.737Z,2.58
2022-08-03T22:46:09.742Z,2.80
2022-08-03T22:50:59.319Z,2.63
2022-08-03T22:55:48.306Z,2.78
2022-08-03T23:00:33.504Z,3.20
2022-08-03T23:06:02.457Z,3.13
2022-08-03T23:10:28.992Z,2.53
2022-08-03T23:15:17.413Z,2.50
2022-08-03T23:20:06.412Z,2.80
2022-08-03T23:24:51.595Z,3.15
2022-08-03T23:29:38.265Z,2.97
2022-08-03T23:34:39.278Z,2.40
2022-08-03T23:39:27.060Z,2.80
2022-08-03T23:44:19.204Z,2.65
2022-08-03T23:49:04.722Z,2.45
2022-08-03T23:54:01.784Z,2.25
2022-08-03T23:59:03.446Z,2.65
